sensor_id;sensor_type;location;lat;lon;timestamp;P1;durP1;ratioP1;P2;durP2;ratioP2
28304;SDS011;15569;42.652;23.040;2023-05-10T00:01:03;13.10;;;7.40;;
28304;SDS011;15569;42.652;23.040;2023-05-10T00:03:28;5.65;;;3.33;;
28304;SDS011;15569;42.652;23.040;2023-05-10T00:05:53;4.25;;;3.65;;
28304;SDS011;15569;42.652;23.040;2023-05-10T00:08:19;6.60;;;5.20;;
28304;SDS011;15569;42.652;23.040;2023-05-10T00:10:44;5.45;;;4.95;;
28304;SDS011;15569;42.652;23.040;2023-05-10T00:13:10;5.20;;;3.40;;
28304;SDS011;15569;42.652;23.040;2023-05-10T00:15:35;9.20;;;5.10;;
28304;SDS011;15569;42.652;23.040;2023-05-10T00:18:01;6.10;;;4.25;;
28304;SDS011;15569;42.652;23.040;2023-05-10T00:20:26;5.32;;;4.15;;
28304;SDS011;15569;42.652;23.040;2023-05-10T00:22:51;11.90;;;7.88;;
28304;SDS011;15569;42.652;23.040;2023-05-10T00:25:17;10.77;;;6.78;;
28304;SDS011;15569;42.652;23.040;2023-05-10T00:27:42;6.30;;;4.68;;
28304;SDS011;15569;42.652;23.040;2023-05-10T00:30:08;6.97;;;4.03;;
28304;SDS011;15569;42.652;23.040;2023-05-10T00:32:34;5.18;;;3.92;;
28304;SDS011;15569;42.652;23.040;2023-05-10T00:34:59;6.85;;;6.00;;
28304;SDS011;15569;42.652;23.040;2023-05-10T00:37:25;8.10;;;5.88;;
28304;SDS011;15569;42.652;23.040;2023-05-10T00:39:50;8.68;;;5.13;;
28304;SDS011;15569;42.652;23.040;2023-05-10T00:42:16;3.60;;;2.95;;
28304;SDS011;15569;42.652;23.040;2023-05-10T00:44:41;4.32;;;3.78;;
28304;SDS011;15569;42.652;23.040;2023-05-10T00:47:07;4.60;;;3.50;;
28304;SDS011;15569;42.652;23.040;2023-05-10T00:49:33;4.32;;;3.80;;
28304;SDS011;15569;42.652;23.040;2023-05-10T00:51:59;7.80;;;5.50;;
28304;SDS011;15569;42.652;23.040;2023-05-10T00:54:24;6.88;;;6.10;;
28304;SDS011;15569;42.652;23.040;2023-05-10T00:56:50;6.88;;;4.13;;
28304;SDS011;15569;42.652;23.040;2023-05-10T00:59:16;5.20;;;4.25;;
28304;SDS011;15569;42.652;23.040;2023-05-10T01:01:43;13.23;;;10.18;;
28304;SDS011;15569;42.652;23.040;2023-05-10T01:04:10;7.50;;;6.78;;
28304;SDS011;15569;42.652;23.040;2023-05-10T01:06:37;10.18;;;8.23;;
28304;SDS011;15569;42.652;23.040;2023-05-10T01:09:03;7.53;;;6.60;;
28304;SDS011;15569;42.652;23.040;2023-05-10T01:11:28;9.30;;;8.07;;
28304;SDS011;15569;42.652;23.040;2023-05-10T01:13:55;9.68;;;8.20;;
28304;SDS011;15569;42.652;23.040;2023-05-10T01:16:23;5.40;;;3.70;;
28304;SDS011;15569;42.652;23.040;2023-05-10T01:18:49;5.80;;;5.28;;
28304;SDS011;15569;42.652;23.040;2023-05-10T01:32:29;8.70;;;7.88;;
28304;SDS011;15569;42.652;23.040;2023-05-10T01:35:00;13.95;;;9.57;;
28304;SDS011;15569;42.652;23.040;2023-05-10T01:37:33;6.85;;;6.15;;
28304;SDS011;15569;42.652;23.040;2023-05-10T01:40:26;16.63;;;6.22;;
28304;SDS011;15569;42.652;23.040;2023-05-10T01:48:17;7.90;;;5.38;;
28304;SDS011;15569;42.652;23.040;2023-05-10T01:50:43;10.63;;;9.10;;
28304;SDS011;15569;42.652;23.040;2023-05-10T01:53:11;9.35;;;8.18;;
28304;SDS011;15569;42.652;23.040;2023-05-10T01:55:51;8.25;;;6.95;;
28304;SDS011;15569;42.652;23.040;2023-05-10T01:58:20;7.68;;;6.53;;
28304;SDS011;15569;42.652;23.040;2023-05-10T02:00:49;8.43;;;7.15;;
28304;SDS011;15569;42.652;23.040;2023-05-10T02:03:15;9.07;;;8.15;;
28304;SDS011;15569;42.652;23.040;2023-05-10T02:05:43;10.93;;;9.82;;
28304;SDS011;15569;42.652;23.040;2023-05-10T02:08:11;14.93;;;13.23;;
28304;SDS011;15569;42.652;23.040;2023-05-10T02:10:39;46.72;;;26.20;;
28304;SDS011;15569;42.652;23.040;2023-05-10T02:13:05;23.38;;;17.55;;
28304;SDS011;15569;42.652;23.040;2023-05-10T02:15:33;11.45;;;10.25;;
28304;SDS011;15569;42.652;23.040;2023-05-10T02:18:00;11.00;;;8.77;;
28304;SDS011;15569;42.652;23.040;2023-05-10T02:20:28;13.40;;;11.80;;
28304;SDS011;15569;42.652;23.040;2023-05-10T02:22:56;15.88;;;13.43;;
28304;SDS011;15569;42.652;23.040;2023-05-10T02:25:23;16.80;;;15.02;;
28304;SDS011;15569;42.652;23.040;2023-05-10T02:27:50;18.13;;;16.30;;
28304;SDS011;15569;42.652;23.040;2023-05-10T02:30:19;15.18;;;13.65;;
28304;SDS011;15569;42.652;23.040;2023-05-10T02:32:45;15.75;;;14.07;;
28304;SDS011;15569;42.652;23.040;2023-05-10T02:35:12;20.48;;;16.42;;
28304;SDS011;15569;42.652;23.040;2023-05-10T02:37:38;13.05;;;11.52;;
28304;SDS011;15569;42.652;23.040;2023-05-10T02:40:05;15.23;;;13.45;;
28304;SDS011;15569;42.652;23.040;2023-05-10T02:42:32;21.98;;;14.63;;
28304;SDS011;15569;42.652;23.040;2023-05-10T02:45:01;40.67;;;23.42;;
28304;SDS011;15569;42.652;23.040;2023-05-10T02:47:28;18.70;;;15.32;;
28304;SDS011;15569;42.652;23.040;2023-05-10T02:49:54;18.23;;;16.33;;
28304;SDS011;15569;42.652;23.040;2023-05-10T02:52:23;16.35;;;14.65;;
28304;SDS011;15569;42.652;23.040;2023-05-10T02:54:54;17.02;;;15.05;;
28304;SDS011;15569;42.652;23.040;2023-05-10T02:57:33;19.00;;;15.77;;
28304;SDS011;15569;42.652;23.040;2023-05-10T03:00:00;17.03;;;13.10;;
28304;SDS011;15569;42.652;23.040;2023-05-10T03:02:26;12.60;;;11.30;;
28304;SDS011;15569;42.652;23.040;2023-05-10T03:04:52;11.80;;;9.98;;
28304;SDS011;15569;42.652;23.040;2023-05-10T03:07:17;18.80;;;15.55;;
28304;SDS011;15569;42.652;23.040;2023-05-10T03:09:46;15.45;;;13.45;;
28304;SDS011;15569;42.652;23.040;2023-05-10T03:17:55;17.02;;;15.23;;
28304;SDS011;15569;42.652;23.040;2023-05-10T03:20:31;20.02;;;18.00;;
28304;SDS011;15569;42.652;23.040;2023-05-10T03:23:12;25.77;;;19.70;;
28304;SDS011;15569;42.652;23.040;2023-05-10T03:25:46;19.50;;;17.08;;
28304;SDS011;15569;42.652;23.040;2023-05-10T03:28:14;19.60;;;17.67;;
28304;SDS011;15569;42.652;23.040;2023-05-10T03:30:41;13.25;;;11.82;;
28304;SDS011;15569;42.652;23.040;2023-05-10T03:33:07;23.73;;;17.58;;
28304;SDS011;15569;42.652;23.040;2023-05-10T03:35:33;18.77;;;16.85;;
28304;SDS011;15569;42.652;23.040;2023-05-10T03:37:59;12.00;;;10.77;;
28304;SDS011;15569;42.652;23.040;2023-05-10T03:40:25;11.88;;;10.68;;
28304;SDS011;15569;42.652;23.040;2023-05-10T03:42:51;32.03;;;20.48;;
28304;SDS011;15569;42.652;23.040;2023-05-10T03:45:16;15.00;;;13.25;;
28304;SDS011;15569;42.652;23.040;2023-05-10T03:47:42;65.75;;;34.05;;
28304;SDS011;15569;42.652;23.040;2023-05-10T03:50:07;17.27;;;14.75;;
28304;SDS011;15569;42.652;23.040;2023-05-10T03:52:33;19.92;;;14.70;;
28304;SDS011;15569;42.652;23.040;2023-05-10T03:54:58;12.85;;;11.55;;
28304;SDS011;15569;42.652;23.040;2023-05-10T03:57:24;9.95;;;8.25;;
28304;SDS011;15569;42.652;23.040;2023-05-10T03:59:49;13.57;;;11.00;;
28304;SDS011;15569;42.652;23.040;2023-05-10T04:02:15;13.80;;;11.77;;
28304;SDS011;15569;42.652;23.040;2023-05-10T04:04:40;11.20;;;10.05;;
28304;SDS011;15569;42.652;23.040;2023-05-10T04:07:05;16.45;;;13.40;;
28304;SDS011;15569;42.652;23.040;2023-05-10T04:09:31;10.05;;;8.93;;
28304;SDS011;15569;42.652;23.040;2023-05-10T04:11:58;14.27;;;11.00;;
28304;SDS011;15569;42.652;23.040;2023-05-10T04:14:24;28.05;;;19.55;;
28304;SDS011;15569;42.652;23.040;2023-05-10T04:16:49;12.68;;;11.32;;
28304;SDS011;15569;42.652;23.040;2023-05-10T04:19:15;20.70;;;13.88;;
28304;SDS011;15569;42.652;23.040;2023-05-10T04:21:40;11.65;;;10.30;;
28304;SDS011;15569;42.652;23.040;2023-05-10T04:24:06;18.38;;;15.50;;
28304;SDS011;15569;42.652;23.040;2023-05-10T04:26:31;15.93;;;13.63;;
28304;SDS011;15569;42.652;23.040;2023-05-10T04:28:56;12.07;;;10.60;;
28304;SDS011;15569;42.652;23.040;2023-05-10T04:31:22;12.45;;;11.15;;
28304;SDS011;15569;42.652;23.040;2023-05-10T04:33:47;17.55;;;14.00;;
28304;SDS011;15569;42.652;23.040;2023-05-10T04:36:12;13.45;;;10.77;;
28304;SDS011;15569;42.652;23.040;2023-05-10T04:38:38;12.20;;;9.75;;
28304;SDS011;15569;42.652;23.040;2023-05-10T04:41:07;13.43;;;8.48;;
28304;SDS011;15569;42.652;23.040;2023-05-10T04:43:33;13.43;;;10.27;;
28304;SDS011;15569;42.652;23.040;2023-05-10T04:45:59;12.70;;;11.40;;
28304;SDS011;15569;42.652;23.040;2023-05-10T04:48:24;16.13;;;9.82;;
28304;SDS011;15569;42.652;23.040;2023-05-10T04:50:50;27.20;;;15.05;;
28304;SDS011;15569;42.652;23.040;2023-05-10T04:53:15;8.02;;;5.40;;
28304;SDS011;15569;42.652;23.040;2023-05-10T04:55:41;13.95;;;9.88;;
28304;SDS011;15569;42.652;23.040;2023-05-10T04:58:06;16.98;;;9.88;;
28304;SDS011;15569;42.652;23.040;2023-05-10T05:00:32;24.50;;;14.02;;
28304;SDS011;15569;42.652;23.040;2023-05-10T05:02:58;14.88;;;11.35;;
28304;SDS011;15569;42.652;23.040;2023-05-10T05:05:24;13.48;;;10.55;;
28304;SDS011;15569;42.652;23.040;2023-05-10T05:07:49;12.15;;;8.13;;
28304;SDS011;15569;42.652;23.040;2023-05-10T05:10:15;10.75;;;9.50;;
28304;SDS011;15569;42.652;23.040;2023-05-10T05:12:40;8.70;;;7.70;;
28304;SDS011;15569;42.652;23.040;2023-05-10T05:15:06;11.13;;;9.68;;
28304;SDS011;15569;42.652;23.040;2023-05-10T05:17:34;12.35;;;9.63;;
28304;SDS011;15569;42.652;23.040;2023-05-10T05:19:59;21.17;;;12.63;;
28304;SDS011;15569;42.652;23.040;2023-05-10T05:22:25;19.08;;;10.80;;
28304;SDS011;15569;42.652;23.040;2023-05-10T05:24:55;10.45;;;8.32;;
28304;SDS011;15569;42.652;23.040;2023-05-10T05:27:23;30.45;;;15.85;;
28304;SDS011;15569;42.652;23.040;2023-05-10T05:29:52;11.35;;;8.57;;
28304;SDS011;15569;42.652;23.040;2023-05-10T05:32:20;9.80;;;7.65;;
28304;SDS011;15569;42.652;23.040;2023-05-10T05:34:46;15.35;;;9.65;;
28304;SDS011;15569;42.652;23.040;2023-05-10T05:37:13;11.63;;;7.93;;
28304;SDS011;15569;42.652;23.040;2023-05-10T05:39:39;10.40;;;7.60;;
28304;SDS011;15569;42.652;23.040;2023-05-10T05:42:05;9.65;;;8.02;;
28304;SDS011;15569;42.652;23.040;2023-05-10T05:44:30;9.80;;;7.88;;
28304;SDS011;15569;42.652;23.040;2023-05-10T05:46:55;9.02;;;7.35;;
28304;SDS011;15569;42.652;23.040;2023-05-10T05:49:21;18.70;;;11.55;;
28304;SDS011;15569;42.652;23.040;2023-05-10T05:51:46;12.43;;;8.30;;
28304;SDS011;15569;42.652;23.040;2023-05-10T05:54:14;12.13;;;8.93;;
28304;SDS011;15569;42.652;23.040;2023-05-10T05:56:39;11.95;;;9.63;;
28304;SDS011;15569;42.652;23.040;2023-05-10T05:59:05;9.52;;;6.88;;
28304;SDS011;15569;42.652;23.040;2023-05-10T06:01:30;9.70;;;7.45;;
28304;SDS011;15569;42.652;23.040;2023-05-10T06:03:56;11.68;;;8.23;;
28304;SDS011;15569;42.652;23.040;2023-05-10T06:06:21;8.88;;;7.35;;
28304;SDS011;15569;42.652;23.040;2023-05-10T06:08:47;18.52;;;13.38;;
28304;SDS011;15569;42.652;23.040;2023-05-10T06:11:12;16.75;;;10.10;;
28304;SDS011;15569;42.652;23.040;2023-05-10T06:13:37;8.48;;;7.50;;
28304;SDS011;15569;42.652;23.040;2023-05-10T06:16:03;11.88;;;8.68;;
28304;SDS011;15569;42.652;23.040;2023-05-10T06:18:29;10.77;;;7.25;;
28304;SDS011;15569;42.652;23.040;2023-05-10T06:20:54;8.68;;;7.03;;
28304;SDS011;15569;42.652;23.040;2023-05-10T06:23:19;9.80;;;6.63;;
28304;SDS011;15569;42.652;23.040;2023-05-10T06:25:45;13.20;;;8.68;;
28304;SDS011;15569;42.652;23.040;2023-05-10T06:28:10;11.35;;;8.20;;
28304;SDS011;15569;42.652;23.040;2023-05-10T06:30:36;14.68;;;9.90;;
28304;SDS011;15569;42.652;23.040;2023-05-10T06:33:02;10.75;;;8.23;;
28304;SDS011;15569;42.652;23.040;2023-05-10T06:35:28;8.57;;;7.03;;
28304;SDS011;15569;42.652;23.040;2023-05-10T06:37:53;9.15;;;7.32;;
28304;SDS011;15569;42.652;23.040;2023-05-10T06:40:19;10.40;;;7.72;;
28304;SDS011;15569;42.652;23.040;2023-05-10T06:42:44;18.35;;;11.23;;
28304;SDS011;15569;42.652;23.040;2023-05-10T06:45:11;12.95;;;9.32;;
28304;SDS011;15569;42.652;23.040;2023-05-10T06:47:37;14.05;;;10.50;;
28304;SDS011;15569;42.652;23.040;2023-05-10T06:50:03;13.55;;;8.93;;
28304;SDS011;15569;42.652;23.040;2023-05-10T06:52:28;13.88;;;8.75;;
28304;SDS011;15569;42.652;23.040;2023-05-10T06:54:53;10.70;;;8.00;;
28304;SDS011;15569;42.652;23.040;2023-05-10T06:57:19;12.88;;;6.72;;
28304;SDS011;15569;42.652;23.040;2023-05-10T06:59:45;13.40;;;9.25;;
28304;SDS011;15569;42.652;23.040;2023-05-10T07:02:11;10.70;;;6.90;;
28304;SDS011;15569;42.652;23.040;2023-05-10T07:04:36;9.07;;;6.05;;
28304;SDS011;15569;42.652;23.040;2023-05-10T07:07:01;12.00;;;8.32;;
28304;SDS011;15569;42.652;23.040;2023-05-10T07:09:27;12.27;;;8.30;;
28304;SDS011;15569;42.652;23.040;2023-05-10T07:11:52;15.45;;;10.05;;
28304;SDS011;15569;42.652;23.040;2023-05-10T07:14:18;16.42;;;9.60;;
28304;SDS011;15569;42.652;23.040;2023-05-10T07:16:43;10.38;;;7.70;;
28304;SDS011;15569;42.652;23.040;2023-05-10T07:19:09;12.13;;;8.27;;
28304;SDS011;15569;42.652;23.040;2023-05-10T07:21:34;11.25;;;8.02;;
28304;SDS011;15569;42.652;23.040;2023-05-10T07:24:00;9.95;;;7.63;;
28304;SDS011;15569;42.652;23.040;2023-05-10T07:26:25;12.38;;;8.57;;
28304;SDS011;15569;42.652;23.040;2023-05-10T07:28:51;10.02;;;6.78;;
28304;SDS011;15569;42.652;23.040;2023-05-10T07:31:16;9.43;;;7.90;;
28304;SDS011;15569;42.652;23.040;2023-05-10T07:33:42;8.82;;;6.30;;
28304;SDS011;15569;42.652;23.040;2023-05-10T07:36:07;12.55;;;9.57;;
28304;SDS011;15569;42.652;23.040;2023-05-10T07:38:32;17.95;;;11.80;;
28304;SDS011;15569;42.652;23.040;2023-05-10T07:40:58;30.42;;;16.92;;
28304;SDS011;15569;42.652;23.040;2023-05-10T07:43:23;16.77;;;11.25;;
28304;SDS011;15569;42.652;23.040;2023-05-10T07:45:48;19.73;;;13.90;;
28304;SDS011;15569;42.652;23.040;2023-05-10T07:48:14;14.68;;;11.35;;
28304;SDS011;15569;42.652;23.040;2023-05-10T07:50:39;14.40;;;11.65;;
28304;SDS011;15569;42.652;23.040;2023-05-10T07:53:05;13.70;;;10.93;;
28304;SDS011;15569;42.652;23.040;2023-05-10T07:55:30;14.90;;;10.43;;
28304;SDS011;15569;42.652;23.040;2023-05-10T07:57:55;18.02;;;13.57;;
28304;SDS011;15569;42.652;23.040;2023-05-10T08:00:21;11.88;;;9.50;;
28304;SDS011;15569;42.652;23.040;2023-05-10T08:02:46;15.15;;;12.55;;
28304;SDS011;15569;42.652;23.040;2023-05-10T08:05:12;26.67;;;19.33;;
28304;SDS011;15569;42.652;23.040;2023-05-10T08:07:38;21.20;;;16.00;;
28304;SDS011;15569;42.652;23.040;2023-05-10T08:10:04;23.40;;;16.20;;
28304;SDS011;15569;42.652;23.040;2023-05-10T08:12:30;20.50;;;16.73;;
28304;SDS011;15569;42.652;23.040;2023-05-10T08:14:55;20.15;;;15.07;;
28304;SDS011;15569;42.652;23.040;2023-05-10T08:17:21;22.92;;;17.10;;
28304;SDS011;15569;42.652;23.040;2023-05-10T08:19:46;29.73;;;16.65;;
28304;SDS011;15569;42.652;23.040;2023-05-10T08:22:12;21.27;;;16.30;;
28304;SDS011;15569;42.652;23.040;2023-05-10T08:24:37;40.65;;;24.67;;
28304;SDS011;15569;42.652;23.040;2023-05-10T08:27:07;25.88;;;18.75;;
28304;SDS011;15569;42.652;23.040;2023-05-10T08:29:33;16.15;;;11.20;;
28304;SDS011;15569;42.652;23.040;2023-05-10T08:31:59;17.60;;;14.27;;
28304;SDS011;15569;42.652;23.040;2023-05-10T08:34:25;29.85;;;20.88;;
28304;SDS011;15569;42.652;23.040;2023-05-10T08:36:51;19.35;;;14.30;;
28304;SDS011;15569;42.652;23.040;2023-05-10T08:39:17;13.38;;;11.40;;
28304;SDS011;15569;42.652;23.040;2023-05-10T08:41:42;16.50;;;13.95;;
28304;SDS011;15569;42.652;23.040;2023-05-10T08:44:09;21.98;;;16.27;;
28304;SDS011;15569;42.652;23.040;2023-05-10T08:46:35;15.93;;;13.68;;
28304;SDS011;15569;42.652;23.040;2023-05-10T08:49:04;18.20;;;13.07;;
28304;SDS011;15569;42.652;23.040;2023-05-10T08:51:39;20.55;;;15.00;;
28304;SDS011;15569;42.652;23.040;2023-05-10T08:54:08;19.48;;;15.25;;
28304;SDS011;15569;42.652;23.040;2023-05-10T08:56:33;17.30;;;14.27;;
28304;SDS011;15569;42.652;23.040;2023-05-10T08:58:59;20.15;;;15.45;;
28304;SDS011;15569;42.652;23.040;2023-05-10T09:01:27;16.55;;;14.15;;
28304;SDS011;15569;42.652;23.040;2023-05-10T09:03:53;14.50;;;11.77;;
28304;SDS011;15569;42.652;23.040;2023-05-10T09:06:18;22.67;;;15.70;;
28304;SDS011;15569;42.652;23.040;2023-05-10T09:08:44;19.13;;;14.95;;
28304;SDS011;15569;42.652;23.040;2023-05-10T09:11:11;21.13;;;14.32;;
28304;SDS011;15569;42.652;23.040;2023-05-10T09:13:37;16.27;;;13.60;;
28304;SDS011;15569;42.652;23.040;2023-05-10T09:16:03;14.07;;;10.07;;
28304;SDS011;15569;42.652;23.040;2023-05-10T09:18:29;21.90;;;15.73;;
28304;SDS011;15569;42.652;23.040;2023-05-10T09:20:55;28.63;;;16.92;;
28304;SDS011;15569;42.652;23.040;2023-05-10T09:23:20;18.02;;;13.15;;
28304;SDS011;15569;42.652;23.040;2023-05-10T09:25:45;18.42;;;12.70;;
28304;SDS011;15569;42.652;23.040;2023-05-10T09:28:11;30.65;;;18.48;;
28304;SDS011;15569;42.652;23.040;2023-05-10T09:30:36;15.40;;;10.85;;
28304;SDS011;15569;42.652;23.040;2023-05-10T09:33:02;29.65;;;18.63;;
28304;SDS011;15569;42.652;23.040;2023-05-10T09:35:28;32.90;;;19.27;;
28304;SDS011;15569;42.652;23.040;2023-05-10T09:37:55;29.27;;;19.17;;
28304;SDS011;15569;42.652;23.040;2023-05-10T09:40:25;22.67;;;14.85;;
28304;SDS011;15569;42.652;23.040;2023-05-10T09:42:53;18.60;;;12.63;;
28304;SDS011;15569;42.652;23.040;2023-05-10T09:45:29;15.43;;;10.40;;
28304;SDS011;15569;42.652;23.040;2023-05-10T09:47:56;17.98;;;13.60;;
28304;SDS011;15569;42.652;23.040;2023-05-10T09:50:23;15.93;;;11.05;;
28304;SDS011;15569;42.652;23.040;2023-05-10T09:52:52;35.92;;;21.05;;
28304;SDS011;15569;42.652;23.040;2023-05-10T09:55:25;31.88;;;20.02;;
28304;SDS011;15569;42.652;23.040;2023-05-10T09:58:02;33.85;;;19.23;;
28304;SDS011;15569;42.652;23.040;2023-05-10T10:00:33;19.65;;;16.17;;
28304;SDS011;15569;42.652;23.040;2023-05-10T10:03:00;32.53;;;21.10;;
28304;SDS011;15569;42.652;23.040;2023-05-10T10:05:30;34.67;;;21.55;;
28304;SDS011;15569;42.652;23.040;2023-05-10T10:07:59;26.02;;;16.80;;
28304;SDS011;15569;42.652;23.040;2023-05-10T10:10:26;26.73;;;18.30;;
28304;SDS011;15569;42.652;23.040;2023-05-10T10:12:53;26.80;;;19.00;;
28304;SDS011;15569;42.652;23.040;2023-05-10T10:15:19;21.77;;;16.98;;
28304;SDS011;15569;42.652;23.040;2023-05-10T10:17:45;60.67;;;36.88;;
28304;SDS011;15569;42.652;23.040;2023-05-10T10:20:11;34.65;;;22.98;;
28304;SDS011;15569;42.652;23.040;2023-05-10T10:22:37;22.52;;;18.92;;
28304;SDS011;15569;42.652;23.040;2023-05-10T10:25:04;21.67;;;17.10;;
28304;SDS011;15569;42.652;23.040;2023-05-10T10:35:37;31.33;;;22.95;;
28304;SDS011;15569;42.652;23.040;2023-05-10T10:38:03;19.63;;;17.58;;
28304;SDS011;15569;42.652;23.040;2023-05-10T10:40:30;37.90;;;21.35;;
28304;SDS011;15569;42.652;23.040;2023-05-10T10:42:57;26.40;;;14.80;;
28304;SDS011;15569;42.652;23.040;2023-05-10T10:45:25;19.50;;;14.80;;
28304;SDS011;15569;42.652;23.040;2023-05-10T10:48:34;17.92;;;13.15;;
28304;SDS011;15569;42.652;23.040;2023-05-10T10:50:55;38.15;;;24.15;;
28304;SDS011;15569;42.652;23.040;2023-05-10T10:53:22;21.35;;;17.23;;
28304;SDS011;15569;42.652;23.040;2023-05-10T10:55:55;25.90;;;17.10;;
28304;SDS011;15569;42.652;23.040;2023-05-10T10:58:30;13.98;;;11.73;;
28304;SDS011;15569;42.652;23.040;2023-05-10T11:01:16;20.23;;;15.88;;
28304;SDS011;15569;42.652;23.040;2023-05-10T11:06:32;16.75;;;13.77;;
28304;SDS011;15569;42.652;23.040;2023-05-10T11:09:08;19.30;;;14.05;;
28304;SDS011;15569;42.652;23.040;2023-05-10T11:11:35;18.58;;;12.20;;
28304;SDS011;15569;42.652;23.040;2023-05-10T11:14:13;40.45;;;24.77;;
28304;SDS011;15569;42.652;23.040;2023-05-10T11:16:42;40.60;;;20.77;;
28304;SDS011;15569;42.652;23.040;2023-05-10T11:19:10;32.20;;;19.85;;
28304;SDS011;15569;42.652;23.040;2023-05-10T11:21:46;26.73;;;15.10;;
28304;SDS011;15569;42.652;23.040;2023-05-10T11:24:13;27.83;;;17.90;;
28304;SDS011;15569;42.652;23.040;2023-05-10T11:26:40;27.83;;;17.98;;
28304;SDS011;15569;42.652;23.040;2023-05-10T11:29:05;39.65;;;23.00;;
28304;SDS011;15569;42.652;23.040;2023-05-10T11:31:31;21.33;;;14.40;;
28304;SDS011;15569;42.652;23.040;2023-05-10T11:33:57;24.77;;;16.27;;
28304;SDS011;15569;42.652;23.040;2023-05-10T11:36:24;25.88;;;16.45;;
28304;SDS011;15569;42.652;23.040;2023-05-10T11:38:52;28.13;;;16.25;;
28304;SDS011;15569;42.652;23.040;2023-05-10T11:41:19;18.60;;;13.73;;
28304;SDS011;15569;42.652;23.040;2023-05-10T11:43:47;19.90;;;14.20;;
28304;SDS011;15569;42.652;23.040;2023-05-10T11:46:15;23.33;;;15.30;;
28304;SDS011;15569;42.652;23.040;2023-05-10T11:48:42;19.65;;;13.02;;
28304;SDS011;15569;42.652;23.040;2023-05-10T11:51:09;19.77;;;14.70;;
28304;SDS011;15569;42.652;23.040;2023-05-10T11:53:35;19.88;;;14.13;;
28304;SDS011;15569;42.652;23.040;2023-05-10T11:56:07;19.70;;;12.63;;
28304;SDS011;15569;42.652;23.040;2023-05-10T11:58:35;15.30;;;12.82;;
28304;SDS011;15569;42.652;23.040;2023-05-10T12:01:02;15.65;;;12.02;;
28304;SDS011;15569;42.652;23.040;2023-05-10T12:03:28;15.43;;;11.82;;
28304;SDS011;15569;42.652;23.040;2023-05-10T12:05:55;17.27;;;10.18;;
28304;SDS011;15569;42.652;23.040;2023-05-10T12:08:22;14.27;;;11.15;;
28304;SDS011;15569;42.652;23.040;2023-05-10T12:10:48;23.35;;;15.82;;
28304;SDS011;15569;42.652;23.040;2023-05-10T12:13:14;15.80;;;13.35;;
28304;SDS011;15569;42.652;23.040;2023-05-10T12:15:40;27.23;;;17.70;;
28304;SDS011;15569;42.652;23.040;2023-05-10T12:18:07;18.30;;;12.60;;
28304;SDS011;15569;42.652;23.040;2023-05-10T12:20:36;30.10;;;18.15;;
28304;SDS011;15569;42.652;23.040;2023-05-10T12:23:03;33.55;;;20.85;;
28304;SDS011;15569;42.652;23.040;2023-05-10T12:25:35;24.42;;;15.40;;
28304;SDS011;15569;42.652;23.040;2023-05-10T12:28:06;30.45;;;19.48;;
28304;SDS011;15569;42.652;23.040;2023-05-10T12:30:33;22.75;;;14.70;;
28304;SDS011;15569;42.652;23.040;2023-05-10T12:33:00;21.90;;;14.43;;
28304;SDS011;15569;42.652;23.040;2023-05-10T12:35:29;16.83;;;12.45;;
28304;SDS011;15569;42.652;23.040;2023-05-10T12:37:55;21.08;;;14.80;;
28304;SDS011;15569;42.652;23.040;2023-05-10T12:40:20;19.05;;;12.50;;
28304;SDS011;15569;42.652;23.040;2023-05-10T12:42:46;35.50;;;20.80;;
28304;SDS011;15569;42.652;23.040;2023-05-10T12:45:11;20.77;;;18.15;;
28304;SDS011;15569;42.652;23.040;2023-05-10T12:47:37;15.55;;;11.80;;
28304;SDS011;15569;42.652;23.040;2023-05-10T12:50:03;21.77;;;14.25;;
28304;SDS011;15569;42.652;23.040;2023-05-10T12:52:29;24.27;;;15.93;;
28304;SDS011;15569;42.652;23.040;2023-05-10T12:54:57;28.70;;;17.98;;
28304;SDS011;15569;42.652;23.040;2023-05-10T12:57:22;34.50;;;21.50;;
28304;SDS011;15569;42.652;23.040;2023-05-10T12:59:48;18.58;;;14.45;;
28304;SDS011;15569;42.652;23.040;2023-05-10T13:02:15;28.60;;;18.42;;
28304;SDS011;15569;42.652;23.040;2023-05-10T13:04:42;20.95;;;15.82;;
28304;SDS011;15569;42.652;23.040;2023-05-10T13:07:08;23.25;;;14.18;;
28304;SDS011;15569;42.652;23.040;2023-05-10T13:09:34;22.73;;;13.68;;
28304;SDS011;15569;42.652;23.040;2023-05-10T13:12:00;24.15;;;15.35;;
28304;SDS011;15569;42.652;23.040;2023-05-10T13:14:26;15.45;;;12.75;;
28304;SDS011;15569;42.652;23.040;2023-05-10T13:16:51;20.52;;;15.30;;
28304;SDS011;15569;42.652;23.040;2023-05-10T13:19:17;18.02;;;13.23;;
28304;SDS011;15569;42.652;23.040;2023-05-10T13:21:43;14.52;;;10.73;;
28304;SDS011;15569;42.652;23.040;2023-05-10T13:24:09;20.70;;;13.40;;
28304;SDS011;15569;42.652;23.040;2023-05-10T13:26:36;18.35;;;13.43;;
28304;SDS011;15569;42.652;23.040;2023-05-10T13:29:02;17.45;;;11.52;;
28304;SDS011;15569;42.652;23.040;2023-05-10T13:31:28;18.33;;;13.20;;
28304;SDS011;15569;42.652;23.040;2023-05-10T13:33:53;23.55;;;14.02;;
28304;SDS011;15569;42.652;23.040;2023-05-10T13:36:18;27.65;;;17.00;;
28304;SDS011;15569;42.652;23.040;2023-05-10T13:38:44;28.30;;;19.38;;
28304;SDS011;15569;42.652;23.040;2023-05-10T13:41:09;30.23;;;19.50;;
28304;SDS011;15569;42.652;23.040;2023-05-10T13:43:35;20.42;;;13.90;;
28304;SDS011;15569;42.652;23.040;2023-05-10T13:46:01;21.23;;;14.13;;
28304;SDS011;15569;42.652;23.040;2023-05-10T13:48:26;39.20;;;23.90;;
28304;SDS011;15569;42.652;23.040;2023-05-10T13:50:52;22.17;;;15.55;;
28304;SDS011;15569;42.652;23.040;2023-05-10T13:53:17;41.13;;;24.25;;
28304;SDS011;15569;42.652;23.040;2023-05-10T13:55:43;25.83;;;19.70;;
28304;SDS011;15569;42.652;23.040;2023-05-10T13:58:08;108.10;;;44.38;;
28304;SDS011;15569;42.652;23.040;2023-05-10T14:00:34;54.03;;;29.27;;
28304;SDS011;15569;42.652;23.040;2023-05-10T14:02:59;22.60;;;15.25;;
28304;SDS011;15569;42.652;23.040;2023-05-10T14:05:25;18.85;;;15.07;;
28304;SDS011;15569;42.652;23.040;2023-05-10T14:07:50;20.15;;;16.23;;
28304;SDS011;15569;42.652;23.040;2023-05-10T14:10:16;21.73;;;14.02;;
28304;SDS011;15569;42.652;23.040;2023-05-10T14:12:41;37.40;;;23.67;;
28304;SDS011;15569;42.652;23.040;2023-05-10T14:15:07;15.75;;;13.02;;
28304;SDS011;15569;42.652;23.040;2023-05-10T14:17:33;38.42;;;22.45;;
28304;SDS011;15569;42.652;23.040;2023-05-10T14:19:58;29.45;;;16.90;;
28304;SDS011;15569;42.652;23.040;2023-05-10T14:22:23;25.50;;;16.70;;
28304;SDS011;15569;42.652;23.040;2023-05-10T14:24:49;24.00;;;15.75;;
28304;SDS011;15569;42.652;23.040;2023-05-10T14:27:15;29.00;;;18.45;;
28304;SDS011;15569;42.652;23.040;2023-05-10T14:29:40;25.95;;;14.70;;
28304;SDS011;15569;42.652;23.040;2023-05-10T14:32:06;15.55;;;11.18;;
28304;SDS011;15569;42.652;23.040;2023-05-10T14:34:32;19.80;;;12.57;;
28304;SDS011;15569;42.652;23.040;2023-05-10T14:36:57;17.27;;;12.07;;
28304;SDS011;15569;42.652;23.040;2023-05-10T14:39:23;19.92;;;12.73;;
28304;SDS011;15569;42.652;23.040;2023-05-10T14:41:48;18.92;;;11.82;;
28304;SDS011;15569;42.652;23.040;2023-05-10T14:44:16;18.55;;;14.10;;